createdAt,value
2023-03-22T00:01:46.492Z,7.90
2023-03-22T00:04:13.078Z,7.20
2023-03-22T00:06:39.536Z,7.27
2023-03-22T00:09:06.293Z,11.00
2023-03-22T00:11:32.678Z,8.47
2023-03-22T00:13:59.941Z,10.73
2023-03-22T00:16:26.764Z,7.23
2023-03-22T00:18:53.245Z,7.10
2023-03-22T00:21:19.752Z,6.80
2023-03-22T00:23:46.589Z,7.80
2023-03-22T00:26:14.830Z,11.07
2023-03-22T00:28:42.284Z,7.53
2023-03-22T00:31:09.277Z,7.37
2023-03-22T00:33:36.609Z,8.57
2023-03-22T00:36:08.686Z,9.40
2023-03-22T00:38:42.950Z,9.70
2023-03-22T00:41:11.417Z,9.00
2023-03-22T00:43:38.486Z,11.20
2023-03-22T00:46:05.827Z,10.50
2023-03-22T00:48:32.415Z,12.20
2023-03-22T00:50:58.904Z,10.20
2023-03-22T00:53:26.400Z,8.73
2023-03-22T00:55:52.821Z,11.90
2023-03-22T00:58:19.226Z,10.93
2023-03-22T01:00:46.069Z,10.67
2023-03-22T01:03:14.178Z,10.77
2023-03-22T01:05:40.589Z,10.03
2023-03-22T01:08:08.684Z,10.10
2023-03-22T01:10:36.747Z,9.53
2023-03-22T01:13:04.008Z,6.90
2023-03-22T01:15:30.623Z,8.60
2023-03-22T01:17:57.407Z,8.30
2023-03-22T01:20:24.189Z,7.67
2023-03-22T01:22:51.322Z,6.90
2023-03-22T01:25:18.373Z,8.27
2023-03-22T01:27:45.226Z,8.30
2023-03-22T01:30:12.640Z,7.77
2023-03-22T01:32:39.473Z,7.90
2023-03-22T01:35:07.179Z,7.77
2023-03-22T01:37:33.718Z,7.10
2023-03-22T01:40:00.505Z,11.27
2023-03-22T01:42:27.844Z,8.53
2023-03-22T01:45:13.032Z,6.30
2023-03-22T01:47:47.973Z,7.80
2023-03-22T01:50:15.222Z,8.07
2023-03-22T01:52:41.677Z,8.10
2023-03-22T01:55:09.434Z,7.27
2023-03-22T01:57:39.250Z,7.23
2023-03-22T02:00:10.802Z,7.77
2023-03-22T02:02:37.357Z,8.77
2023-03-22T02:05:04.474Z,8.17
2023-03-22T02:07:31.736Z,8.87
2023-03-22T02:09:59.526Z,8.13
2023-03-22T02:13:02.003Z,8.80
2023-03-22T02:15:52.054Z,10.10
2023-03-22T02:18:35.616Z,10.03
2023-03-22T02:21:04.965Z,9.83
2023-03-22T02:23:57.341Z,9.73
2023-03-22T02:26:41.728Z,13.93
2023-03-22T02:29:26.266Z,8.67
2023-03-22T02:32:12.201Z,10.03
2023-03-22T02:34:55.379Z,10.73
2023-03-22T02:37:38.886Z,9.87
2023-03-22T02:40:26.308Z,9.83
2023-03-22T02:43:16.955Z,9.93
2023-03-22T02:46:07.746Z,9.50
2023-03-22T02:48:50.640Z,8.80
2023-03-22T02:51:29.863Z,7.33
2023-03-22T02:54:06.523Z,9.40
2023-03-22T02:57:16.698Z,8.87
2023-03-22T02:59:44.184Z,9.37
2023-03-22T03:02:17.263Z,9.57
2023-03-22T03:04:47.898Z,10.40
2023-03-22T03:07:19.257Z,10.30
2023-03-22T03:09:45.997Z,7.70
2023-03-22T03:12:20.102Z,7.97
2023-03-22T03:14:46.527Z,9.70
2023-03-22T03:17:37.920Z,7.93
2023-03-22T03:20:30.401Z,9.23
2023-03-22T03:23:04.687Z,7.40
2023-03-22T03:25:43.599Z,7.47
2023-03-22T03:28:30.182Z,8.73
2023-03-22T03:31:06.430Z,7.73
2023-03-22T03:33:36.338Z,9.23
2023-03-22T03:36:08.287Z,10.10
2023-03-22T03:38:38.311Z,9.03
2023-03-22T03:41:09.192Z,9.57
2023-03-22T03:43:37.119Z,8.97
2023-03-22T03:46:03.674Z,8.50
2023-03-22T03:48:33.195Z,8.40
2023-03-22T03:51:01.753Z,9.03
2023-03-22T03:53:28.777Z,9.07
2023-03-22T03:55:55.205Z,9.93
2023-03-22T03:58:21.634Z,8.00
2023-03-22T04:00:48.851Z,9.47
2023-03-22T04:03:15.663Z,11.23
2023-03-22T04:05:42.852Z,11.40
2023-03-22T04:08:09.293Z,8.13
2023-03-22T04:10:36.076Z,14.23
2023-03-22T04:13:02.495Z,9.03
2023-03-22T04:15:29.058Z,9.10
2023-03-22T04:17:55.532Z,10.83
2023-03-22T04:20:22.506Z,12.67
2023-03-22T04:22:49.090Z,9.13
2023-03-22T04:25:18.039Z,10.53
2023-03-22T04:27:47.121Z,9.63
2023-03-22T04:30:22.171Z,9.43
2023-03-22T04:32:49.685Z,12.03
2023-03-22T04:35:16.553Z,12.40
2023-03-22T04:37:43.675Z,10.23
2023-03-22T04:40:16.518Z,9.83
2023-03-22T04:42:44.696Z,9.93
2023-03-22T04:45:12.396Z,12.13
2023-03-22T04:47:39.200Z,10.23
2023-03-22T04:50:07.590Z,8.90
2023-03-22T04:52:33.984Z,9.47
2023-03-22T04:55:00.468Z,11.10
2023-03-22T04:57:26.985Z,12.07
2023-03-22T04:59:53.362Z,11.40
2023-03-22T05:02:19.825Z,11.33
2023-03-22T05:04:46.286Z,9.53
2023-03-22T05:07:12.863Z,10.73
2023-03-22T05:09:39.380Z,13.30
2023-03-22T05:12:06.026Z,11.70
2023-03-22T05:14:32.620Z,10.07
2023-03-22T05:16:59.147Z,10.77
2023-03-22T05:19:25.609Z,10.37
2023-03-22T05:21:58.493Z,9.13
2023-03-22T05:24:25.271Z,7.83
2023-03-22T05:26:53.866Z,11.67
2023-03-22T05:29:21.340Z,9.17
2023-03-22T05:31:47.898Z,10.03
2023-03-22T05:34:14.719Z,9.20
2023-03-22T05:36:41.503Z,12.07
2023-03-22T05:39:08.080Z,9.27
2023-03-22T05:41:36.667Z,10.07
2023-03-22T05:44:04.355Z,9.90
2023-03-22T05:46:30.894Z,13.60
2023-03-22T05:48:57.390Z,11.43
2023-03-22T05:51:26.277Z,14.13
2023-03-22T05:53:53.533Z,12.10
2023-03-22T05:56:24.908Z,15.80
2023-03-22T05:58:52.069Z,14.87
2023-03-22T06:01:20.404Z,11.23
2023-03-22T06:03:48.646Z,14.73
2023-03-22T06:06:15.726Z,14.97
2023-03-22T06:08:42.870Z,14.20
2023-03-22T06:11:09.852Z,16.43
2023-03-22T06:13:37.443Z,16.90
2023-03-22T06:16:05.341Z,14.43
2023-03-22T06:18:32.999Z,12.97
2023-03-22T06:20:59.492Z,12.07
2023-03-22T06:23:26.301Z,14.37
2023-03-22T06:25:52.813Z,15.10
2023-03-22T06:28:19.231Z,14.40
2023-03-22T06:30:45.751Z,12.20
2023-03-22T06:33:12.218Z,15.80
2023-03-22T06:35:38.716Z,14.10
2023-03-22T06:38:05.460Z,15.97
2023-03-22T06:40:31.926Z,15.33
2023-03-22T06:42:59.838Z,19.40
2023-03-22T06:45:33.136Z,14.53
2023-03-22T06:48:00.835Z,14.43
2023-03-22T06:50:28.568Z,13.57
2023-03-22T06:52:55.338Z,14.63
2023-03-22T06:55:22.206Z,18.73
2023-03-22T06:57:48.604Z,14.40
2023-03-22T07:00:15.927Z,15.27
2023-03-22T07:02:42.307Z,15.67
2023-03-22T07:05:09.266Z,15.83
2023-03-22T07:07:35.810Z,15.43
2023-03-22T07:10:02.201Z,14.17
2023-03-22T07:12:28.773Z,16.97
2023-03-22T07:14:55.349Z,16.67
2023-03-22T07:17:21.861Z,17.17
2023-03-22T07:19:48.835Z,15.37
2023-03-22T07:22:15.450Z,14.63
2023-03-22T07:24:55.742Z,17.90
2023-03-22T07:27:23.656Z,15.57
2023-03-22T07:29:50.184Z,14.87
2023-03-22T07:32:16.838Z,14.67
2023-03-22T07:34:43.759Z,17.57
2023-03-22T07:37:10.260Z,14.60
2023-03-22T07:39:37.045Z,15.27
2023-03-22T07:42:03.848Z,20.50
2023-03-22T07:44:30.830Z,15.97
2023-03-22T07:46:57.403Z,13.77
2023-03-22T07:49:24.229Z,12.73
2023-03-22T07:51:50.901Z,15.70
2023-03-22T07:54:32.172Z,15.47
2023-03-22T07:56:59.281Z,14.33
2023-03-22T07:59:26.018Z,15.07
2023-03-22T08:01:52.564Z,12.93
2023-03-22T08:04:20.913Z,13.60
2023-03-22T08:06:47.315Z,14.77
2023-03-22T08:09:13.717Z,16.07
2023-03-22T08:11:40.419Z,15.43
2023-03-22T08:14:07.062Z,15.20
2023-03-22T08:16:33.591Z,15.63
2023-03-22T08:19:00.648Z,14.13
2023-03-22T08:21:27.541Z,12.67
2023-03-22T08:23:54.394Z,14.80
2023-03-22T08:26:22.098Z,15.27
2023-03-22T08:28:49.015Z,13.77
2023-03-22T08:31:17.222Z,13.63
2023-03-22T08:33:44.811Z,18.03
2023-03-22T08:36:14.640Z,13.47
2023-03-22T08:38:42.728Z,12.50
2023-03-22T08:41:09.430Z,13.40
2023-03-22T08:43:36.017Z,15.60
2023-03-22T08:46:02.898Z,15.43
2023-03-22T08:48:30.797Z,15.43
2023-03-22T08:50:58.127Z,11.93
2023-03-22T08:53:24.983Z,14.60
2023-03-22T08:55:51.407Z,16.03
2023-03-22T08:58:19.957Z,15.20
2023-03-22T09:00:49.460Z,13.17
2023-03-22T09:03:16.952Z,14.63
2023-03-22T09:05:44.025Z,13.67
2023-03-22T09:08:18.400Z,17.40
2023-03-22T09:10:51.147Z,12.90
2023-03-22T09:13:17.956Z,14.40
2023-03-22T09:15:47.645Z,13.90
2023-03-22T09:18:15.232Z,11.67
2023-03-22T09:20:43.152Z,12.03
2023-03-22T09:23:09.798Z,11.67
2023-03-22T09:25:36.602Z,11.13
2023-03-22T09:28:04.191Z,10.87
2023-03-22T09:30:31.106Z,10.30
2023-03-22T09:32:57.492Z,12.20
2023-03-22T09:35:24.419Z,10.03
2023-03-22T09:37:53.218Z,10.40
2023-03-22T09:40:21.713Z,13.40
2023-03-22T09:42:54.236Z,9.37
2023-03-22T09:45:38.110Z,11.00
2023-03-22T09:48:11.691Z,16.00
2023-03-22T09:50:46.231Z,10.87
2023-03-22T09:53:15.532Z,6.97
2023-03-22T09:55:51.271Z,5.87
2023-03-22T09:58:36.721Z,6.50
2023-03-22T10:01:10.809Z,6.03
2023-03-22T10:03:42.895Z,7.90
2023-03-22T10:06:20.792Z,8.23
2023-03-22T10:09:13.956Z,11.73
2023-03-22T10:11:47.302Z,10.70
2023-03-22T10:14:38.524Z,7.57
2023-03-22T10:17:11.673Z,7.63
2023-03-22T10:19:56.951Z,9.27
2023-03-22T10:22:31.150Z,6.43
2023-03-22T10:25:00.245Z,5.87
2023-03-22T10:27:29.366Z,6.63
2023-03-22T10:30:08.777Z,7.87
2023-03-22T10:32:56.398Z,4.33
2023-03-22T10:35:23.467Z,4.70
2023-03-22T10:37:51.698Z,5.80
2023-03-22T10:40:23.884Z,4.30
2023-03-22T10:43:01.397Z,7.80
2023-03-22T10:45:28.474Z,8.07
2023-03-22T10:48:06.918Z,6.07
2023-03-22T10:50:38.049Z,5.30
2023-03-22T10:53:08.698Z,6.90
2023-03-22T10:55:44.004Z,5.00
2023-03-22T10:58:10.324Z,5.00
2023-03-22T11:00:40.633Z,5.67
2023-03-22T11:03:08.299Z,5.93
2023-03-22T11:05:35.085Z,5.23
2023-03-22T11:08:03.219Z,5.83
2023-03-22T11:10:35.080Z,5.23
2023-03-22T11:13:07.576Z,5.00
2023-03-22T11:15:38.843Z,3.90
2023-03-22T11:18:16.214Z,6.50
2023-03-22T11:20:56.092Z,4.47
2023-03-22T11:23:24.097Z,4.43
2023-03-22T11:25:52.761Z,4.00
2023-03-22T11:28:25.982Z,6.43
2023-03-22T11:31:01.811Z,4.03
2023-03-22T11:33:28.319Z,3.60
2023-03-22T11:35:57.605Z,5.30
2023-03-22T11:38:24.166Z,3.47
2023-03-22T11:40:59.098Z,5.40
2023-03-22T11:43:52.723Z,4.28
2023-03-22T11:46:20.763Z,5.33
2023-03-22T11:48:51.089Z,3.57
2023-03-22T11:51:26.763Z,3.13
2023-03-22T11:54:06.919Z,2.90
2023-03-22T11:56:34.462Z,2.93
2023-03-22T11:59:07.915Z,4.20
2023-03-22T12:01:43.870Z,5.43
2023-03-22T12:04:18.652Z,3.50
2023-03-22T12:06:45.232Z,4.17
2023-03-22T12:09:14.384Z,2.93
2023-03-22T12:11:45.176Z,4.13
2023-03-22T12:14:23.262Z,3.27
2023-03-22T12:17:00.187Z,3.20
2023-03-22T12:19:43.245Z,2.90
2023-03-22T12:22:31.813Z,3.65
2023-03-22T12:24:59.441Z,3.10
2023-03-22T12:27:28.564Z,3.20
2023-03-22T12:30:01.338Z,3.80
2023-03-22T12:32:45.796Z,3.87
2023-03-22T12:35:20.490Z,3.70
2023-03-22T12:37:52.106Z,6.93
2023-03-22T12:40:26.436Z,6.67
2023-03-22T12:43:08.206Z,3.83
2023-03-22T12:45:41.181Z,3.90
2023-03-22T12:48:24.024Z,3.17
2023-03-22T12:50:59.949Z,3.63
2023-03-22T12:53:33.174Z,6.37
2023-03-22T12:56:01.052Z,2.97
2023-03-22T12:58:27.711Z,4.45
2023-03-22T13:00:59.135Z,3.67
2023-03-22T13:03:30.037Z,3.90
2023-03-22T13:06:28.301Z,3.00
2023-03-22T13:09:21.178Z,3.45
2023-03-22T13:12:08.893Z,4.10
2023-03-22T13:14:50.848Z,4.00
2023-03-22T13:17:23.263Z,6.67
2023-03-22T13:20:11.633Z,3.38
2023-03-22T13:22:38.161Z,2.37
2023-03-22T13:25:12.490Z,5.10
2023-03-22T13:27:53.980Z,2.47
2023-03-22T13:30:20.280Z,3.57
2023-03-22T13:33:03.470Z,3.33
2023-03-22T13:35:46.538Z,4.07
2023-03-22T13:38:23.038Z,4.00
2023-03-22T13:40:56.443Z,2.55
2023-03-22T13:43:28.234Z,2.10
2023-03-22T13:46:18.083Z,17.08
2023-03-22T13:48:47.863Z,4.13
2023-03-22T13:51:18.197Z,2.78
2023-03-22T13:54:07.285Z,2.65
2023-03-22T13:56:43.083Z,4.00
2023-03-22T13:59:19.795Z,3.03
2023-03-22T14:01:52.366Z,1.63
2023-03-22T14:04:30.732Z,2.40
2023-03-22T14:07:08.119Z,2.03
2023-03-22T14:09:44.324Z,4.43
2023-03-22T14:12:13.531Z,3.83
2023-03-22T14:14:47.295Z,3.95
2023-03-22T14:17:29.749Z,1.50
2023-03-22T14:19:58.318Z,2.35
